FW0177 Weather Reports


Display with metric or nautical units.
time (UTC)temp
F
wind
direction
speed
MPH
gust
MPH
rain 1hr
in
rain 24hr
in
rain mn
in
humidity
%
barometer
mb
20180926062217 74 179 2.0 5.0 0.00 0.00 0.00 96 1017.6
20180926061729 74 187 2.0 4.0 0.00 0.00 0.00 96 1017.6
20180926061220 74 181 0.0 3.0 0.00 0.00 0.00 96 1017.6
20180926060732 74 181 0.0 3.0 0.00 0.00 0.00 96 1017.6
20180926060222 74 168 1.0 2.0 0.00 0.00 0.00 96 1017.6
20180926055734 74 184 0.0 0.0 0.00 0.00 0.00 96 1017.7
20180926055225 74 184 0.0 2.0 0.00 0.00 0.00 96 1017.8
20180926054721 74 185 0.0 3.0 0.00 0.00 0.00 96 1017.9
20180926054232 74 185 1.0 3.0 0.00 0.00 0.00 96 1018.0
20180926053723 74 185 0.0 4.0 0.00 0.00 0.00 96 1018.0
20180926053216 74 187 2.0 4.0 0.00 0.00 0.00 96 1018.1
20180926052727 74 187 2.0 4.0 0.00 0.00 0.00 96 1018.2
20180926052218 74 161 0.0 0.0 0.00 0.00 0.00 96 1018.3
20180926051730 74 161 0.0 0.0 0.00 0.00 0.00 96 1018.2
20180926051222 74 161 0.0 0.0 0.00 0.00 0.00 96 1018.3
20180926050717 74 161 0.0 0.0 0.00 0.00 0.00 96 1018.5
20180926050228 74 161 0.0 0.0 0.00 0.00 0.00 96 1018.5
20180926045720 74 136 0.0 0.0 0.00 0.00 0.00 95 1018.4
20180926045231 74 136 0.0 0.0 0.00 0.00 0.00 95 1018.4
20180926044723 74 136 0.0 0.0 0.00 0.00 0.00 95 1018.4
20180926044234 74 136 0.0 0.0 0.00 0.00 0.00 95 1018.5
20180926043725 74 136 0.0 0.0 0.00 0.00 0.00 95 1018.5
20180926043216 74 136 0.0 0.0 0.00 0.00 0.00 95 1018.6
20180926042727 75 136 0.0 0.0 0.00 0.00 0.00 95 1018.6
20180926042222 75 136 0.0 0.0 0.00 0.00 0.00 95 1018.5
20180926041735 75 136 0.0 0.0 0.00 0.00 0.00 95 1018.4
20180926041226 75 136 0.0 0.0 0.00 0.00 0.00 95 1018.4
20180926040718 75 136 0.0 0.0 0.00 0.00 0.00 95 1018.4
20180926040229 75 136 0.0 0.0 0.00 0.00 0.00 95 1018.3
20180926035720 75 136 0.0 0.0 0.00 0.00 0.00 95 1018.3
20180926035231 75 153 0.0 0.0 0.00 0.00 0.00 95 1018.4
20180926034723 75 192 0.0 0.0 0.00 0.00 0.00 94 1018.4
20180926034218 75 192 0.0 0.0 0.00 0.00 0.00 94 1018.5
20180926033729 75 192 0.0 0.0 0.00 0.00 0.00 94 1018.6
20180926033220 75 192 0.0 0.0 0.00 0.00 0.00 94 1018.7
20180926032732 75 193 0.0 0.0 0.00 0.00 0.00 93 1018.6
20180926032223 75 193 0.0 0.0 0.00 0.00 0.00 93 1018.6
20180926031734 76 193 0.0 0.0 0.00 0.00 0.00 93 1018.6
20180926031225 76 193 0.0 0.0 0.00 0.00 0.00 93 1018.6
20180926030717 76 193 0.0 0.0 0.00 0.00 0.00 93 1018.5
20180926030232 76 193 0.0 0.0 0.00 0.00 0.00 93 1018.5
20180926025724 76 193 0.0 0.0 0.00 0.00 0.00 93 1018.4
20180926025215 76 193 0.0 0.0 0.00 0.00 0.00 93 1018.3
20180926024726 76 193 0.0 0.0 0.00 0.00 0.00 93 1018.3
20180926024218 76 193 0.0 0.0 0.00 0.00 0.00 93 1018.2
20180926023729 76 192 0.0 0.0 0.00 0.00 0.00 93 1018.0
20180926023220 76 192 0.0 0.0 0.00 0.00 0.00 93 1017.9
20180926022731 76 192 0.0 0.0 0.00 0.00 0.00 92 1017.7
20180926022226 76 192 0.0 0.0 0.00 0.00 0.00 92 1017.7
20180926021717 76 192 0.0 0.0 0.00 0.00 0.00 92 1017.7
20180926021229 77 192 0.0 0.0 0.00 0.00 0.00 92 1017.6
20180926020720 77 192 0.0 0.0 0.00 0.00 0.00 91 1017.5
20180926020231 77 192 0.0 0.0 0.00 0.00 0.00 91 1017.4
20180926015722 77 192 0.0 0.0 0.00 0.00 0.00 91 1017.3
20180926015234 77 192 0.0 0.0 0.00 0.00 0.00 91 1017.3
20180926014726 77 195 0.0 0.0 0.00 0.00 0.00 90 1017.2
20180926014221 77 195 0.0 0.0 0.00 0.00 0.00 90 1017.1
20180926013732 78 195 0.0 0.0 0.00 0.00 0.00 90 1017.0
20180926013223 78 195 0.0 0.0 0.00 0.00 0.00 90 1017.0
20180926012734 78 195 0.0 0.0 0.00 0.00 0.00 90 1016.9
20180926012225 78 195 0.0 0.0 0.00 0.00 0.00 90 1016.9
20180926011717 78 195 0.0 3.0 0.00 0.00 0.00 90 1016.8
20180926011228 78 193 0.0 4.0 0.00 0.00 0.00 89 1016.6
20180926010719 78 190 2.0 7.0 0.00 0.00 0.00 89 1016.6
20180926010232 78 182 3.0 8.0 0.00 0.00 0.00 89 1016.6
20180926005724 79 241 5.0 8.0 0.00 0.00 0.00 88 1016.6
20180926005235 79 181 5.0 8.0 0.00 0.00 0.00 88 1016.6
20180926004727 79 172 2.0 7.0 0.00 0.00 0.00 87 1016.7
20180926004218 79 141 4.0 10.0 0.00 0.00 0.00 87 1016.8
20180926003730 79 192 5.0 10.0 0.00 0.00 0.00 88 1016.8
20180926003221 79 140 2.0 4.0 0.00 0.00 0.00 89 1016.6
20180926002732 79 211 0.0 0.0 0.00 0.00 0.00 90 1016.5
20180926002223 79 161 0.0 0.0 0.00 0.00 0.00 90 1016.5
20180926001718 79 161 0.0 0.0 0.00 0.00 0.00 90 1016.3
20180926001230 79 161 0.0 0.0 0.00 0.00 0.00 89 1016.2
20180926000721 80 161 0.0 0.0 0.00 0.00 0.00 89 1016.2
20180926000232 80 161 0.0 0.0 0.00 0.00 0.00 88 1016.2
20180925235724 81 161 0.0 0.0 0.00 0.00 0.00 87 1016.3
20180925235215 81 161 0.0 0.0 0.00 0.00 0.00 86 1016.3
20180925234727 81 161 0.0 0.0 0.00 0.00 0.00 86 1016.2
20180925234218 81 161 0.0 0.0 0.00 0.00 0.00 85 1016.1
20180925233733 81 161 0.0 0.0 0.00 0.00 0.00 85 1016.2
20180925233225 82 161 0.0 0.0 0.00 0.00 0.00 84 1016.2
20180925232716 82 161 0.0 0.0 0.00 0.00 0.00 83 1016.1
20180925232228 83 186 0.0 0.0 0.00 0.00 0.00 82 1016.0
20180925231718 83 186 0.0 0.0 0.00 0.00 0.00 82 1016.0
20180925231229 83 186 0.0 0.0 0.00 0.00 0.00 81 1015.9
20180925230721 84 186 0.0 0.0 0.00 0.00 0.00 80 1015.9
20180925230233 84 186 0.0 0.0 0.00 0.00 0.00 79 1015.8
20180925225728 85 186 0.0 0.0 0.00 0.00 0.00 77 1015.7
20180925225219 85 186 0.0 0.0 0.00 0.00 0.00 75 1015.5
20180925224731 86 187 0.0 0.0 0.00 0.00 0.00 74 1015.6
20180925224222 86 186 0.0 0.0 0.00 0.00 0.00 72 1015.7
20180925223731 87 186 0.0 0.0 0.00 0.00 0.00 70 1015.7
20180925223222 87 200 0.0 6.0 0.00 0.00 0.00 70 1015.6
20180925222734 87 176 2.0 6.0 0.00 0.00 0.00 70 1015.6
20180925222227 88 150 2.0 6.0 0.00 0.00 0.00 71 1015.7
20180925221717 88 187 2.0 6.0 0.00 0.00 0.00 71 1015.6
20180925221232 88 178 3.0 5.0 0.00 0.00 0.00 69 1015.6
20180925220724 88 183 2.0 7.0 0.00 0.00 0.00 69 1015.5
20180925220215 88 166 4.0 7.0 0.00 0.00 0.00 69 1015.4
20180925215727 88 166 3.0 7.0 0.00 0.00 0.00 67 1015.4
20180925215218 88 154 2.0 7.0 0.00 0.00 0.00 66 1015.4
20180925214730 89 209 4.0 7.0 0.00 0.00 0.00 67 1015.4
20180925214222 89 152 3.0 6.0 0.00 0.00 0.00 67 1015.4
20180925213733 89 163 3.0 6.0 0.00 0.00 0.00 66 1015.3
20180925213228 88 151 3.0 6.0 0.00 0.00 0.00 67 1015.3
20180925212720 88 142 3.0 7.0 0.00 0.00 0.00 66 1015.4
20180925212231 88 192 2.0 6.0 0.00 0.00 0.00 68 1015.4
20180925211722 88 123 3.0 6.0 0.00 0.00 0.00 68 1015.5
20180925211235 88 150 3.0 6.0 0.00 0.00 0.00 68 1015.6
20180925210726 88 153 3.0 6.0 0.00 0.00 0.00 68 1015.6
20180925210217 88 173 0.0 3.0 0.00 0.00 0.00 69 1015.6
20180925205728 88 181 2.0 4.0 0.00 0.00 0.00 68 1015.7
20180925205223 88 98 2.0 8.0 0.00 0.00 0.00 68 1015.8
20180925204735 89 171 3.0 10.0 0.00 0.00 0.00 67 1015.8
20180925204226 89 162 4.0 10.0 0.00 0.00 0.00 66 1015.7
20180925203717 88 161 3.0 8.0 0.00 0.00 0.00 67 1015.6
20180925203229 88 222 4.0 8.0 0.00 0.00 0.00 65 1015.5
20180925202720 88 186 4.0 9.0 0.00 0.00 0.00 65 1015.6
20180925202231 88 200 5.0 9.0 0.00 0.00 0.00 66 1015.5
20180925201724 89 162 3.0 7.0 0.00 0.00 0.00 65 1015.5
20180925201219 89 103 3.0 9.0 0.00 0.00 0.00 65 1015.5
20180925200730 88 164 4.0 11.0 0.00 0.00 0.00 66 1015.6
20180925200221 88 196 3.0 8.0 0.00 0.00 0.00 67 1015.6
20180925195733 87 134 0.0 6.0 0.00 0.00 0.00 69 1015.7
20180925195224 87 154 1.0 7.0 0.00 0.00 0.00 67 1015.7
20180925194716 88 193 4.0 7.0 0.00 0.00 0.00 67 1015.8
20180925194227 88 117 3.0 6.0 0.00 0.00 0.00 67 1015.8
20180925193718 87 180 1.0 6.0 0.00 0.00 0.00 70 1015.9
20180925193229 87 196 2.0 6.0 0.00 0.00 0.00 70 1016.1
20180925192725 87 138 3.0 10.0 0.00 0.00 0.00 70 1016.2
20180925192216 87 138 4.0 10.0 0.00 0.00 0.00 68 1016.2
20180925191728 87 170 3.0 7.0 0.00 0.00 0.00 69 1016.3
20180925191219 87 186 3.0 6.0 0.00 0.00 0.00 71 1016.3
20180925190730 87 140 3.0 7.0 0.00 0.00 0.00 69 1016.3
20180925190221 87 145 2.0 8.0 0.00 0.00 0.00 72 1016.5
20180925185733 87 194 3.0 8.0 0.00 0.00 0.00 70 1016.5
20180925185224 87 177 5.0 8.0 0.00 0.00 0.00 70 1016.6
20180925184720 87 198 2.0 8.0 0.00 0.00 0.00 73 1016.6
20180925184231 87 180 4.0 8.0 0.00 0.00 0.00 71 1016.7
20180925183723 87 116 3.0 5.0 0.00 0.00 0.00 72 1016.8
20180925183235 86 191 3.0 7.0 0.00 0.00 0.00 72 1016.9
20180925182726 87 165 3.0 10.0 0.00 0.00 0.00 71 1017.0
20180925182217 86 193 5.0 10.0 0.00 0.00 0.00 72 1017.1
20180925181729 86 162 4.0 10.0 0.00 0.00 0.00 74 1017.2
20180925181220 85 210 3.0 7.0 0.00 0.00 0.00 76 1017.3
20180925180735 85 198 2.0 10.0 0.00 0.00 0.00 74 1017.3
20180925180228 85 210 5.0 10.0 0.00 0.00 0.00 75 1017.3
20180925175718 85 98 2.0 7.0 0.00 0.00 0.00 76 1017.5
20180925175230 85 196 4.0 7.0 0.00 0.00 0.00 76 1017.5
20180925174721 85 190 4.0 10.0 0.00 0.00 0.00 74 1017.6
20180925174232 85 165 4.0 10.0 0.00 0.00 0.00 75 1017.6
20180925173723 85 167 3.0 10.0 0.00 0.00 0.00 75 1017.7
20180925173215 85 192 3.0 10.0 0.00 0.00 0.00 77 1017.8
20180925172731 85 184 4.0 12.0 0.00 0.00 0.00 74 1017.8
20180925172222 85 188 2.0 7.0 0.00 0.00 0.00 77 1017.9
20180925171734 85 194 3.0 11.0 0.00 0.00 0.00 76 1017.9
20180925171225 85 208 4.0 11.0 0.00 0.00 0.00 78 1018.0
20180925170717 84 144 4.0 8.0 0.00 0.00 0.00 78 1018.0
20180925170228 85 182 5.0 8.0 0.00 0.00 0.00 77 1018.0
20180925165719 84 176 3.0 8.0 0.00 0.00 0.00 77 1018.1
20180925165231 84 188 3.0 7.0 0.00 0.00 0.00 79 1018.0
20180925164726 84 196 3.0 8.0 0.00 0.00 0.00 78 1018.1
20180925164217 84 190 3.0 10.0 0.00 0.00 0.00 79 1018.1
20180925163730 83 122 4.0 10.0 0.00 0.00 0.00 80 1018.2
20180925163221 84 197 4.0 10.0 0.00 0.00 0.00 78 1018.3
20180925162732 83 142 3.0 10.0 0.00 0.00 0.00 79 1018.3
20180925162223 83 196 5.0 9.0 0.00 0.00 0.00 79 1018.3
20180925161735 83 173 3.0 9.0 0.00 0.00 0.00 81 1018.4
20180925161226 83 131 4.0 10.0 0.00 0.00 0.00 81 1018.4
20180925160721 82 101 6.0 10.0 0.00 0.00 0.00 83 1018.4
20180925160233 82 198 3.0 9.0 0.00 0.00 0.00 84 1018.4
20180925155717 82 186 5.0 10.0 0.00 0.00 0.00 83 1018.4
20180925155228 82 200 6.0 11.0 0.00 0.00 0.00 83 1018.5
20180925154719 81 131 5.0 8.0 0.00 0.00 0.00 82 1018.6
20180925154230 81 136 4.0 9.0 0.00 0.00 0.00 82 1018.6
20180925153723 81 161 4.0 9.0 0.00 0.00 0.00 83 1018.6
20180925153235 81 156 4.0 8.0 0.00 0.00 0.00 85 1018.6
20180925152727 81 178 5.0 7.0 0.00 0.00 0.00 86 1018.6
20180925152222 80 207 2.0 5.0 0.00 0.00 0.00 88 1018.6
20180925151733 79 209 2.0 7.0 0.00 0.00 0.00 90 1018.5
20180925151224 79 190 3.0 7.0 0.00 0.00 0.00 89 1018.5
20180925150718 78 190 2.0 6.0 0.00 0.00 0.00 89 1018.5
20180925150229 78 186 2.0 7.0 0.00 0.00 0.00 90 1018.5
20180925145720 78 166 2.0 7.0 0.00 0.00 0.00 91 1018.5
20180925145231 78 149 2.0 6.0 0.00 0.00 0.00 91 1018.5
20180925144723 78 198 2.0 6.0 0.00 0.00 0.00 91 1018.4
20180925144218 78 199 2.0 5.0 0.00 0.00 0.00 93 1018.4
20180925143730 78 182 1.0 8.0 0.00 0.00 0.00 95 1018.3
20180925143221 78 90 2.0 8.0 0.00 0.00 0.00 96 1018.3
20180925142732 77 214 2.0 5.0 0.00 0.00 0.00 97 1018.4
20180925142224 77 153 3.0 6.0 0.00 0.00 0.00 98 1018.4
20180925141735 77 162 2.0 5.0 0.00 0.00 0.00 98 1018.4
20180925141226 76 196 1.0 5.0 0.00 0.00 0.00 98 1018.5
20180925140718 76 196 2.0 5.0 0.00 0.00 0.00 98 1018.6
20180925140233 75 208 2.0 5.0 0.00 0.00 0.00 98 1018.5
20180925135725 76 182 3.0 5.0 0.00 0.00 0.00 98 1018.6
20180925135216 76 192 2.0 5.0 0.00 0.00 0.00 98 1018.5
20180925134727 75 178 1.0 5.0 0.00 0.00 0.00 98 1018.5
20180925134219 75 191 1.0 4.0 0.00 0.00 0.00 98 1018.5
20180925133731 75 125 1.0 4.0 0.00 0.00 0.00 98 1018.5
20180925133221 75 195 1.0 3.0 0.00 0.00 0.00 98 1018.5
20180925132733 75 171 1.0 7.0 0.00 0.00 0.00 98 1018.6
20180925132228 75 126 1.0 7.0 0.00 0.00 0.00 98 1018.6
20180925131720 75 157 0.0 5.0 0.00 0.00 0.00 98 1018.4
20180925131231 75 166 1.0 6.0 0.00 0.00 0.00 98 1018.3
20180925130724 75 130 3.0 6.0 0.00 0.00 0.00 98 1018.3
20180925130235 75 163 2.0 7.0 0.00 0.00 0.00 98 1018.4
20180925125726 75 115 3.0 7.0 0.00 0.00 0.00 98 1018.3
20180925125217 74 144 2.0 5.0 0.00 0.00 0.00 98 1018.3
20180925124730 74 117 1.0 6.0 0.00 0.00 0.00 98 1018.1
20180925124225 74 138 2.0 4.0 0.00 0.00 0.00 98 1018.1
20180925123717 74 124 1.0 4.0 0.00 0.00 0.00 98 1018.1
20180925123229 74 156 0.0 4.0 0.00 0.00 0.00 98 1018.1
20180925122721 74 103 1.0 6.0 0.00 0.00 0.00 98 1018.1
20180925122233 73 113 1.0 6.0 0.00 0.00 0.00 98 1018.1
20180925121724 73 58 2.0 6.0 0.00 0.00 0.00 98 1018.1
20180925121235 73 107 2.0 6.0 0.00 0.00 0.00 98 1018.1
20180925120726 73 122 1.0 3.0 0.00 0.00 0.00 98 1018.2
20180925120221 73 103 0.0 3.0 0.00 0.00 0.00 98 1018.1
20180925115733 73 103 0.0 3.0 0.00 0.00 0.00 98 1018.0
20180925115225 73 90 1.0 2.0 0.00 0.00 0.00 98 1017.9
20180925114716 73 86 1.0 2.0 0.00 0.00 0.00 98 1017.7
20180925114228 73 86 0.0 2.0 0.00 0.00 0.00 98 1017.7
20180925113720 73 86 0.0 2.0 0.00 0.00 0.00 98 1017.6
20180925113230 73 86 0.0 4.0 0.00 0.00 0.00 98 1017.5
20180925112721 73 86 1.0 4.0 0.00 0.00 0.00 98 1017.5
20180925112216 72 88 0.0 2.0 0.00 0.00 0.00 98 1017.4
20180925111728 72 88 0.0 2.0 0.00 0.00 0.00 98 1017.3
20180925111219 72 88 0.0 3.0 0.00 0.00 0.00 98 1017.3
20180925110731 72 88 1.0 3.0 0.00 0.00 0.00 98 1017.3
20180925110222 72 110 1.0 4.0 0.00 0.00 0.00 98 1017.3
20180925105733 72 102 1.0 4.0 0.00 0.00 0.00 98 1017.1
20180925105224 73 92 2.0 4.0 0.00 0.00 0.00 98 1017.2
20180925104716 73 105 1.0 6.0 0.00 0.00 0.00 98 1017.2
20180925104227 73 98 3.0 6.0 0.00 0.00 0.00 98 1017.2
20180925103722 73 93 0.0 3.0 0.00 0.00 0.00 98 1017.0
20180925103234 73 84 1.0 3.0 0.00 0.00 0.00 98 1017.0
20180925102725 73 80 1.0 3.0 0.00 0.00 0.00 98 1016.9
20180925095225 72 113 1.0 1.0 0.00 0.00 0.00 98 1016.8
20180925094717 72 113 0.0 0.0 0.00 0.00 0.00 98 1016.8
20180925094229 72 113 0.0 0.0 0.00 0.00 0.00 98 1016.7
20180925093721 73 113 0.0 0.0 0.00 0.00 0.00 98 1016.6
20180925093234 73 113 0.0 0.0 0.00 0.00 0.00 98 1016.6
20180925092726 73 113 0.0 0.0 0.00 0.00 0.00 98 1016.6
20180925092222 73 113 0.0 0.0 0.00 0.00 0.00 98 1016.6
20180925091734 73 113 0.0 0.0 0.00 0.00 0.00 98 1016.5
20180925091226 73 113 0.0 0.0 0.00 0.00 0.00 98 1016.7
20180925090719 73 113 0.0 0.0 0.00 0.00 0.00 98 1016.6
20180925090231 73 113 0.0 1.0 0.00 0.00 0.00 98 1016.6
20180925085724 73 113 0.0 2.0 0.00 0.00 0.00 98 1016.6
20180925085216 72 113 0.0 2.0 0.00 0.00 0.00 98 1016.5
20180925084728 72 113 1.0 2.0 0.00 0.00 0.00 98 1016.5
20180925084225 72 113 0.0 2.0 0.00 0.00 0.00 98 1016.5
20180925083717 72 113 0.0 3.0 0.00 0.00 0.00 98 1016.5
20180925083229 72 113 1.0 3.0 0.00 0.00 0.00 98 1016.5
20180925082721 72 113 1.0 3.0 0.00 0.00 0.00 98 1016.5
20180925082234 72 97 0.0 3.0 0.00 0.00 0.00 98 1016.5
20180925081726 72 97 1.0 3.0 0.00 0.00 0.00 98 1016.5
20180925081218 72 116 0.0 0.0 0.00 0.00 0.00 97 1016.5
20180925080730 72 116 0.0 0.0 0.00 0.00 0.00 97 1016.6
20180925080227 72 116 0.0 0.0 0.00 0.00 0.00 97 1016.5
20180925075718 72 116 0.0 0.0 0.00 0.00 0.00 97 1016.4
20180925075231 72 116 0.0 0.0 0.00 0.00 0.00 97 1016.4
20180925074723 72 116 0.0 0.0 0.00 0.00 0.00 97 1016.4
20180925074215 72 116 0.0 0.0 0.00 0.00 0.00 97 1016.4
20180925073727 72 116 0.0 0.0 0.00 0.00 0.00 97 1016.4
20180925073220 72 116 0.0 0.0 0.00 0.00 0.00 97 1016.4
20180925072716 72 116 0.0 0.0 0.00 0.00 0.00 97 1016.4
20180925072227 72 116 0.0 0.0 0.00 0.00 0.00 97 1016.4
20180925071719 72 116 0.0 0.0 0.00 0.00 0.00 97 1016.5
20180925071232 72 116 0.0 0.0 0.00 0.00 0.00 97 1016.5
20180925070724 73 116 0.0 0.0 0.00 0.00 0.00 97 1016.6
20180925070216 73 116 0.0 0.0 0.00 0.00 0.00 97 1016.6
20180925065728 73 116 0.0 0.0 0.00 0.00 0.00 97 1016.6
20180925065220 73 116 0.0 0.0 0.00 0.00 0.00 97 1016.6
20180925064717 73 116 0.0 0.0 0.00 0.00 0.00 97 1016.6
20180925064229 73 116 0.0 0.0 0.00 0.00 0.00 97 1016.5
20180925063721 73 116 0.0 0.0 0.00 0.00 0.00 97 1016.6
20180925063233 73 116 0.0 0.0 0.00 0.00 0.00 97 1016.5
20180925062726 73 116 0.0 0.0 0.00 0.00 0.00 97 1016.5